createdAt,value
2022-12-20T00:00:59.745Z,101104.00
2022-12-20T00:03:26.354Z,101088.00
2022-12-20T00:05:52.927Z,101086.00
2022-12-20T00:08:19.665Z,101089.00
2022-12-20T00:10:46.301Z,101089.00
2022-12-20T00:13:13.548Z,101084.00
2022-12-20T00:15:40.289Z,101084.00
2022-12-20T00:18:07.079Z,101081.00
2022-12-20T00:20:34.159Z,101081.00
2022-12-20T00:23:01.015Z,101075.00
2022-12-20T00:25:27.997Z,101073.00
2022-12-20T00:27:54.614Z,101069.00
2022-12-20T00:30:21.277Z,101071.00
2022-12-20T00:32:47.906Z,101065.00
2022-12-20T00:35:14.790Z,101072.00
2022-12-20T00:37:41.591Z,101090.00
2022-12-20T00:40:08.846Z,101073.00
2022-12-20T00:42:35.405Z,101078.00
2022-12-20T00:45:03.808Z,101079.00
2022-12-20T00:47:30.382Z,101086.00
2022-12-20T00:49:57.014Z,101096.00
2022-12-20T00:52:23.610Z,101104.00
2022-12-20T00:54:50.228Z,101075.00
2022-12-20T00:57:16.849Z,101082.00
2022-12-20T00:59:43.459Z,101077.00
2022-12-20T01:02:10.160Z,101066.00
2022-12-20T01:04:36.916Z,101060.00
2022-12-20T01:07:04.226Z,101064.00
2022-12-20T01:09:31.903Z,101067.00
2022-12-20T01:11:58.559Z,101065.00
2022-12-20T01:14:25.271Z,101068.00
2022-12-20T01:16:51.983Z,101070.00
2022-12-20T01:19:18.992Z,101058.00
2022-12-20T01:21:45.662Z,101060.00
2022-12-20T01:24:17.899Z,101059.00
2022-12-20T01:26:45.510Z,101068.00
2022-12-20T01:29:12.405Z,101067.00
2022-12-20T01:31:39.022Z,101063.00
2022-12-20T01:34:06.286Z,101068.00
2022-12-20T01:36:35.736Z,101068.00
2022-12-20T01:39:09.484Z,101065.00
2022-12-20T01:41:38.082Z,101053.00
2022-12-20T01:44:26.977Z,101067.00
2022-12-20T01:46:54.355Z,101054.00
2022-12-20T01:49:20.969Z,101048.00
2022-12-20T01:51:52.123Z,101027.00
2022-12-20T01:54:28.258Z,101066.00
2022-12-20T01:56:59.640Z,101043.00
2022-12-20T01:59:28.178Z,101045.00
2022-12-20T02:01:58.826Z,101040.00
2022-12-20T02:04:25.645Z,101049.00
2022-12-20T02:06:52.222Z,101046.00
2022-12-20T02:09:18.884Z,101043.00
2022-12-20T02:12:10.665Z,101046.00
2022-12-20T02:14:40.254Z,101047.00
2022-12-20T02:17:15.665Z,101049.00
2022-12-20T02:20:04.046Z,101024.00
2022-12-20T02:22:45.605Z,101050.00
2022-12-20T02:25:28.229Z,101047.00
2022-12-20T02:27:54.818Z,101052.00
2022-12-20T02:30:23.771Z,101042.00
2022-12-20T02:32:53.361Z,101048.00
2022-12-20T02:35:23.676Z,101044.00
2022-12-20T02:37:53.114Z,101040.00
2022-12-20T02:40:50.735Z,101060.00
2022-12-20T02:43:35.910Z,101043.00
2022-12-20T02:46:03.073Z,101029.00
2022-12-20T02:48:33.527Z,101028.00
2022-12-20T02:51:01.913Z,101029.00
2022-12-20T02:53:29.706Z,101024.00
2022-12-20T02:56:07.162Z,101036.00
2022-12-20T02:58:40.073Z,101024.00
2022-12-20T03:01:14.176Z,101025.00
2022-12-20T03:03:41.107Z,101009.00
2022-12-20T03:06:08.224Z,101008.00
2022-12-20T03:08:34.825Z,101016.00
2022-12-20T03:11:01.470Z,101009.00
2022-12-20T03:13:28.122Z,101010.00
2022-12-20T03:15:54.742Z,101008.00
2022-12-20T03:18:21.566Z,100989.00
2022-12-20T03:20:48.648Z,100985.00
2022-12-20T03:23:15.253Z,100981.00
2022-12-20T03:25:41.998Z,100984.00
2022-12-20T03:28:08.584Z,100990.00
2022-12-20T03:30:35.362Z,100998.00
2022-12-20T03:33:01.996Z,100980.00
2022-12-20T03:35:28.643Z,100982.00
2022-12-20T03:37:56.402Z,100987.00
2022-12-20T03:40:23.115Z,100984.00
2022-12-20T03:42:49.786Z,100979.00
2022-12-20T03:45:16.483Z,100972.00
2022-12-20T03:47:43.201Z,100961.00
2022-12-20T03:50:10.223Z,100963.00
2022-12-20T03:52:37.185Z,100960.00
2022-12-20T03:55:04.919Z,100961.00
2022-12-20T03:57:31.587Z,100957.00
2022-12-20T03:59:58.215Z,100955.00
2022-12-20T04:02:25.097Z,100956.00
2022-12-20T04:04:51.938Z,100953.00
2022-12-20T04:07:18.605Z,100957.00
2022-12-20T04:09:45.297Z,100957.00
2022-12-20T04:12:11.910Z,100944.00
2022-12-20T04:14:38.598Z,100954.00
2022-12-20T04:17:05.273Z,100947.00
2022-12-20T04:19:31.942Z,100948.00
2022-12-20T04:22:04.726Z,100940.00
2022-12-20T04:24:31.992Z,100948.00
2022-12-20T04:26:58.677Z,100942.00
2022-12-20T04:29:25.289Z,100948.00
2022-12-20T04:31:52.026Z,100940.00
2022-12-20T04:34:18.767Z,100942.00
2022-12-20T04:36:45.501Z,100939.00
2022-12-20T04:39:12.180Z,100932.00
2022-12-20T04:41:38.806Z,100936.00
2022-12-20T04:44:05.475Z,100937.00
2022-12-20T04:46:32.100Z,100947.00
2022-12-20T04:48:59.961Z,100940.00
2022-12-20T04:51:27.984Z,100950.00
2022-12-20T04:53:55.052Z,100949.00
2022-12-20T04:56:29.074Z,100936.00
2022-12-20T04:58:58.680Z,100923.00
2022-12-20T05:01:25.643Z,100922.00
2022-12-20T05:03:52.692Z,100906.00
2022-12-20T05:06:19.654Z,100912.00
2022-12-20T05:08:46.796Z,100919.00
2022-12-20T05:11:13.503Z,100915.00
2022-12-20T05:13:40.383Z,100898.00
2022-12-20T05:16:07.308Z,100901.00
2022-12-20T05:18:34.038Z,100882.00
2022-12-20T05:21:20.569Z,100876.00
2022-12-20T05:24:06.046Z,100887.00
2022-12-20T05:26:36.434Z,100878.00
2022-12-20T05:29:03.760Z,100876.00
2022-12-20T05:31:30.461Z,100877.00
2022-12-20T05:33:57.233Z,100870.00
2022-12-20T05:36:23.958Z,100871.00
2022-12-20T05:38:50.771Z,100869.00
2022-12-20T05:41:17.380Z,100871.00
2022-12-20T05:43:44.014Z,100866.00
2022-12-20T05:46:11.304Z,100875.00
2022-12-20T05:48:38.120Z,100877.00
2022-12-20T05:51:05.005Z,100878.00
2022-12-20T05:53:31.871Z,100859.00
2022-12-20T05:55:59.486Z,100873.00
2022-12-20T05:58:26.311Z,100866.00
2022-12-20T06:00:52.918Z,100862.00
2022-12-20T06:03:19.990Z,100860.00
2022-12-20T06:05:46.784Z,100863.00
2022-12-20T06:08:13.884Z,100869.00
2022-12-20T06:10:42.002Z,100876.00
2022-12-20T06:13:10.018Z,100874.00
2022-12-20T06:15:38.281Z,100876.00
2022-12-20T06:18:06.144Z,100871.00
2022-12-20T06:20:34.110Z,100876.00
2022-12-20T06:23:01.487Z,100893.00
2022-12-20T06:25:28.669Z,100864.00
2022-12-20T06:27:55.636Z,100869.00
2022-12-20T06:30:22.795Z,100880.00
2022-12-20T06:32:49.401Z,100874.00
2022-12-20T06:35:16.340Z,100868.00
2022-12-20T06:37:43.081Z,100870.00
2022-12-20T06:40:12.635Z,100879.00
2022-12-20T06:42:39.651Z,100866.00
2022-12-20T06:45:07.154Z,100879.00
2022-12-20T06:47:33.787Z,100879.00
2022-12-20T06:50:00.415Z,100885.00
2022-12-20T06:52:27.112Z,100884.00
2022-12-20T06:54:53.747Z,100891.00
2022-12-20T06:57:20.365Z,100896.00
2022-12-20T06:59:47.090Z,100884.00
2022-12-20T07:02:14.440Z,100867.00
2022-12-20T07:04:41.302Z,100876.00
2022-12-20T07:07:08.212Z,100890.00
2022-12-20T07:09:35.114Z,100878.00
2022-12-20T07:12:01.735Z,100867.00
2022-12-20T07:14:28.460Z,100879.00
2022-12-20T07:16:55.209Z,100875.00
2022-12-20T07:19:22.235Z,100872.00
2022-12-20T07:21:49.250Z,100889.00
2022-12-20T07:24:16.022Z,100874.00
2022-12-20T07:26:44.939Z,100890.00
2022-12-20T07:29:15.654Z,100885.00
2022-12-20T07:31:43.084Z,100888.00
2022-12-20T07:34:11.008Z,100888.00
2022-12-20T07:36:37.711Z,100892.00
2022-12-20T07:39:04.329Z,100885.00
2022-12-20T07:41:30.995Z,100897.00
2022-12-20T07:43:59.365Z,100877.00
2022-12-20T07:46:26.470Z,100880.00
2022-12-20T07:48:53.311Z,100886.00
2022-12-20T07:51:29.684Z,100887.00
2022-12-20T07:54:02.605Z,100901.00
2022-12-20T07:56:34.564Z,100896.00
2022-12-20T07:59:04.338Z,100894.00
2022-12-20T08:01:31.466Z,100899.00
2022-12-20T08:04:03.054Z,100902.00
2022-12-20T08:06:30.247Z,100899.00
2022-12-20T08:09:00.547Z,100891.00
2022-12-20T08:11:30.301Z,100902.00
2022-12-20T08:13:58.252Z,100909.00
2022-12-20T08:16:25.872Z,100919.00
2022-12-20T08:18:52.686Z,100914.00
2022-12-20T08:21:19.393Z,100897.00
2022-12-20T08:23:46.197Z,100912.00
2022-12-20T08:26:12.802Z,100906.00
2022-12-20T08:28:39.408Z,100911.00
2022-12-20T08:31:08.248Z,100906.00
2022-12-20T08:33:37.260Z,100912.00
2022-12-20T08:36:06.599Z,100908.00
2022-12-20T08:38:33.581Z,100913.00
2022-12-20T08:41:05.177Z,100917.00
2022-12-20T08:43:33.231Z,100907.00
2022-12-20T08:46:00.819Z,100916.00
2022-12-20T08:48:27.907Z,100912.00
2022-12-20T08:50:56.609Z,100914.00
2022-12-20T08:53:23.280Z,100920.00
2022-12-20T08:55:50.909Z,100926.00
2022-12-20T08:58:17.541Z,100913.00
2022-12-20T09:00:44.895Z,100916.00
2022-12-20T09:03:12.017Z,100909.00
2022-12-20T09:05:45.469Z,100914.00
2022-12-20T09:08:12.276Z,100914.00
2022-12-20T09:10:39.079Z,100914.00
2022-12-20T09:13:05.712Z,100916.00
2022-12-20T09:15:34.871Z,100932.00
2022-12-20T09:18:02.250Z,100918.00
2022-12-20T09:20:29.556Z,100924.00
2022-12-20T09:22:56.354Z,100937.00
2022-12-20T09:25:23.079Z,100934.00
2022-12-20T09:27:50.073Z,100928.00
2022-12-20T09:30:16.955Z,100923.00
2022-12-20T09:32:43.598Z,100927.00
2022-12-20T09:35:10.288Z,100922.00
2022-12-20T09:37:36.861Z,100927.00
2022-12-20T09:40:04.498Z,100930.00
2022-12-20T09:42:31.763Z,100940.00
2022-12-20T09:45:08.485Z,100937.00
2022-12-20T09:47:36.377Z,100936.00
2022-12-20T09:50:06.281Z,100943.00
2022-12-20T09:52:41.616Z,100935.00
2022-12-20T09:55:37.391Z,100938.00
2022-12-20T09:58:29.217Z,100927.00
2022-12-20T10:00:56.023Z,100925.00
2022-12-20T10:03:27.885Z,100934.00
2022-12-20T10:05:58.338Z,100929.00
2022-12-20T10:08:51.633Z,100935.00
2022-12-20T10:11:50.135Z,100931.00
2022-12-20T10:14:23.145Z,100930.00
2022-12-20T10:16:56.949Z,100944.00
2022-12-20T10:20:02.367Z,100942.00
2022-12-20T10:22:45.455Z,100953.00
2022-12-20T10:25:17.599Z,100943.00
2022-12-20T10:27:46.232Z,100947.00
2022-12-20T10:30:19.643Z,100956.00
2022-12-20T10:32:51.549Z,100958.00
2022-12-20T10:35:29.190Z,100962.00
2022-12-20T10:38:17.726Z,100957.00
2022-12-20T10:44:18.327Z,100953.00
2022-12-20T10:46:49.532Z,100956.00
2022-12-20T10:49:34.231Z,100935.00
2022-12-20T10:52:10.500Z,100945.00
2022-12-20T10:54:45.353Z,100945.00
2022-12-20T10:57:28.647Z,100945.00
2022-12-20T10:59:57.918Z,100944.00
2022-12-20T11:02:40.740Z,100934.00
2022-12-20T11:05:11.472Z,100942.00
2022-12-20T11:10:40.939Z,100931.00
2022-12-20T11:13:23.480Z,100923.00
2022-12-20T11:15:54.761Z,100917.00
2022-12-20T11:19:03.065Z,100938.00
2022-12-20T11:21:41.572Z,100924.00
2022-12-20T11:24:46.867Z,100926.00
2022-12-20T11:27:37.573Z,100919.00
2022-12-20T11:30:24.791Z,100910.00
2022-12-20T11:32:54.278Z,100911.00
2022-12-20T11:35:52.920Z,100919.00
2022-12-20T11:38:56.965Z,100929.00
2022-12-20T11:41:33.427Z,100934.00
2022-12-20T11:44:25.354Z,100927.00
2022-12-20T11:47:01.346Z,100930.00
2022-12-20T11:49:37.300Z,100917.00
2022-12-20T11:52:23.963Z,100922.00
2022-12-20T11:55:04.600Z,100913.00
2022-12-20T11:58:02.084Z,100914.00
2022-12-20T12:00:27.639Z,100909.00
2022-12-20T12:03:10.613Z,100916.00
2022-12-20T12:05:44.461Z,100919.00
2022-12-20T12:08:45.416Z,100914.00
2022-12-20T12:12:04.658Z,100914.00
2022-12-20T12:14:28.904Z,100912.00
2022-12-20T12:17:00.987Z,100916.00
2022-12-20T12:19:30.832Z,100915.00
2022-12-20T12:22:11.032Z,100914.00
2022-12-20T12:24:42.728Z,100912.00
2022-12-20T12:27:29.704Z,100899.00
2022-12-20T12:29:58.581Z,100914.00
2022-12-20T12:32:37.290Z,100906.00
2022-12-20T12:35:03.764Z,100909.00
2022-12-20T12:37:49.969Z,100912.00
2022-12-20T12:40:41.140Z,100904.00
2022-12-20T12:43:59.041Z,100903.00
2022-12-20T12:46:32.532Z,100913.00
2022-12-20T12:49:01.535Z,100912.00
2022-12-20T12:51:32.965Z,100913.00
2022-12-20T12:54:23.425Z,100912.00
2022-12-20T12:56:51.423Z,100905.00
2022-12-20T12:59:33.124Z,100900.00
2022-12-20T13:02:03.818Z,100896.00
2022-12-20T13:04:51.805Z,100903.00
2022-12-20T13:07:33.723Z,100899.00
2022-12-20T13:10:02.465Z,100903.00
2022-12-20T13:12:38.342Z,100901.00
2022-12-20T13:15:20.219Z,100914.00
2022-12-20T13:17:53.882Z,100903.00
2022-12-20T13:20:26.737Z,100903.00
2022-12-20T13:23:19.340Z,100903.00
2022-12-20T13:25:53.916Z,100902.00
2022-12-20T13:28:23.662Z,100902.00
2022-12-20T13:31:02.629Z,100903.00
2022-12-20T13:33:43.321Z,100901.00
2022-12-20T13:36:09.873Z,100896.00
2022-12-20T13:38:39.385Z,100897.00
2022-12-20T13:41:11.896Z,100886.00
2022-12-20T13:43:44.877Z,100894.00
2022-12-20T13:46:11.493Z,100884.00
2022-12-20T13:48:38.131Z,100882.00
2022-12-20T13:51:08.021Z,100878.00
2022-12-20T13:53:35.226Z,100890.00
2022-12-20T13:56:31.132Z,100885.00
2022-12-20T13:59:37.472Z,100893.00
2022-12-20T14:02:17.493Z,100897.00
2022-12-20T14:04:50.441Z,100892.00
2022-12-20T14:07:18.416Z,100897.00
2022-12-20T14:09:47.142Z,100901.00
2022-12-20T14:12:23.261Z,100902.00
2022-12-20T14:14:53.367Z,100907.00
2022-12-20T14:17:25.060Z,100908.00
2022-12-20T14:20:17.361Z,100910.00
2022-12-20T14:23:04.456Z,100912.00
2022-12-20T14:25:37.713Z,100917.00
2022-12-20T14:28:04.451Z,100914.00
2022-12-20T14:30:51.642Z,100913.00
2022-12-20T14:33:39.439Z,100919.00
2022-12-20T14:36:17.575Z,100923.00
2022-12-20T14:38:49.624Z,100919.00
2022-12-20T14:41:36.313Z,100910.00
2022-12-20T14:44:07.829Z,100921.00
2022-12-20T14:46:36.017Z,100911.00
2022-12-20T14:49:30.855Z,100907.00
2022-12-20T14:52:12.319Z,100899.00
2022-12-20T14:55:12.908Z,100904.00
2022-12-20T14:57:50.333Z,100915.00
2022-12-20T15:00:28.049Z,100913.00
2022-12-20T15:03:02.778Z,100906.00
2022-12-20T15:05:36.126Z,100899.00
2022-12-20T15:08:11.942Z,100892.00
2022-12-20T15:10:38.916Z,100887.00
2022-12-20T15:13:13.307Z,100895.00
2022-12-20T15:15:40.173Z,100882.00
2022-12-20T15:18:25.232Z,100883.00
2022-12-20T15:21:00.028Z,100879.00
2022-12-20T15:23:26.717Z,100879.00
2022-12-20T15:25:53.768Z,100890.00
2022-12-20T15:28:25.269Z,100892.00
2022-12-20T15:30:52.831Z,100901.00
2022-12-20T15:33:26.036Z,100906.00
2022-12-20T15:35:53.649Z,100907.00
2022-12-20T15:38:40.716Z,100911.00
2022-12-20T15:41:22.353Z,100913.00
2022-12-20T15:43:52.788Z,100919.00
2022-12-20T15:46:19.939Z,100925.00
2022-12-20T15:48:46.558Z,100926.00
2022-12-20T15:51:21.725Z,100926.00
2022-12-20T15:53:48.279Z,100928.00
2022-12-20T15:56:20.547Z,100938.00
2022-12-20T15:58:47.961Z,100925.00
2022-12-20T16:01:20.689Z,100927.00
2022-12-20T16:03:47.487Z,100926.00
2022-12-20T16:06:14.215Z,100930.00
2022-12-20T16:08:41.252Z,100930.00
2022-12-20T16:11:19.613Z,100938.00
2022-12-20T16:13:47.268Z,100938.00
2022-12-20T16:16:22.511Z,100927.00
2022-12-20T16:18:49.960Z,100922.00
2022-12-20T16:21:41.777Z,100920.00
2022-12-20T16:24:14.240Z,100918.00
2022-12-20T16:26:40.966Z,100922.00
2022-12-20T16:29:08.355Z,100919.00
2022-12-20T16:31:37.356Z,100919.00
2022-12-20T16:34:09.981Z,100924.00
2022-12-20T16:36:36.646Z,100928.00
2022-12-20T16:39:03.346Z,100929.00
2022-12-20T16:41:31.246Z,100938.00
2022-12-20T16:44:02.432Z,100932.00
2022-12-20T16:46:31.324Z,100936.00
2022-12-20T16:48:59.470Z,100936.00
2022-12-20T16:51:39.139Z,100943.00
2022-12-20T16:54:21.084Z,100952.00
2022-12-20T16:56:52.110Z,100939.00
2022-12-20T16:59:21.320Z,100937.00
2022-12-20T17:01:51.646Z,100941.00
2022-12-20T17:04:19.974Z,100934.00
2022-12-20T17:06:46.948Z,100935.00
2022-12-20T17:09:13.837Z,100939.00
2022-12-20T17:11:40.496Z,100939.00
2022-12-20T17:14:12.304Z,100943.00
2022-12-20T17:16:40.176Z,100946.00
2022-12-20T17:19:06.915Z,100955.00
2022-12-20T17:24:22.809Z,100945.00
2022-12-20T17:26:49.843Z,100943.00
2022-12-20T17:29:17.887Z,100950.00
2022-12-20T17:31:46.370Z,100960.00
2022-12-20T17:34:27.867Z,100961.00
2022-12-20T17:36:57.313Z,100975.00
2022-12-20T17:39:25.442Z,100978.00
2022-12-20T17:41:54.051Z,100966.00
2022-12-20T17:44:28.100Z,100971.00
2022-12-20T17:46:56.559Z,100974.00
2022-12-20T17:49:24.474Z,100967.00
2022-12-20T17:51:51.977Z,100961.00
2022-12-20T17:54:21.480Z,100973.00
2022-12-20T17:56:49.759Z,100974.00
2022-12-20T17:59:17.311Z,100976.00
2022-12-20T18:01:44.781Z,100965.00
2022-12-20T18:04:13.975Z,100975.00
2022-12-20T18:06:42.950Z,100974.00
2022-12-20T18:09:18.701Z,100968.00
2022-12-20T18:11:46.105Z,100975.00
2022-12-20T18:14:13.690Z,100977.00
2022-12-20T18:16:40.576Z,100968.00
2022-12-20T18:19:08.789Z,100959.00
2022-12-20T18:21:35.460Z,100959.00
2022-12-20T18:24:02.142Z,100959.00
2022-12-20T18:26:31.509Z,100967.00
2022-12-20T18:29:00.753Z,100971.00
2022-12-20T18:31:30.098Z,100965.00
2022-12-20T18:33:58.241Z,100968.00
2022-12-20T18:36:27.889Z,100967.00
2022-12-20T18:38:56.591Z,100962.00
2022-12-20T18:41:25.772Z,100970.00
2022-12-20T18:43:53.755Z,100975.00
2022-12-20T18:46:22.166Z,100984.00
2022-12-20T18:48:53.213Z,100985.00
2022-12-20T18:51:22.799Z,100984.00
2022-12-20T18:53:50.540Z,100995.00
2022-12-20T18:56:20.513Z,100989.00
2022-12-20T18:58:48.425Z,100979.00
2022-12-20T19:01:20.370Z,100978.00
2022-12-20T19:03:47.744Z,100993.00
2022-12-20T19:06:14.889Z,100997.00
2022-12-20T19:08:41.675Z,101000.00
2022-12-20T19:11:09.689Z,101013.00
2022-12-20T19:13:36.917Z,101018.00
2022-12-20T19:16:06.609Z,101005.00
2022-12-20T19:18:34.207Z,101012.00
2022-12-20T19:21:12.644Z,101005.00
2022-12-20T19:23:40.520Z,101014.00
2022-12-20T19:26:12.726Z,101014.00
2022-12-20T19:28:40.473Z,101016.00
2022-12-20T19:31:17.357Z,101019.00
2022-12-20T19:33:48.059Z,101004.00
2022-12-20T19:36:17.676Z,101007.00
2022-12-20T19:38:46.164Z,101012.00
2022-12-20T19:41:13.427Z,101016.00
2022-12-20T19:43:40.504Z,101016.00
2022-12-20T19:46:08.056Z,101012.00
2022-12-20T19:48:34.768Z,101029.00
2022-12-20T19:51:06.755Z,101018.00
2022-12-20T19:53:33.366Z,101030.00
2022-12-20T19:56:00.028Z,101031.00
2022-12-20T19:58:26.692Z,101025.00
2022-12-20T20:00:53.520Z,101038.00
2022-12-20T20:03:21.588Z,101036.00
2022-12-20T20:05:49.292Z,101028.00
2022-12-20T20:08:16.782Z,101021.00
2022-12-20T20:10:44.769Z,101030.00
2022-12-20T20:13:11.993Z,101032.00
2022-12-20T20:15:38.672Z,101037.00
2022-12-20T20:18:05.319Z,101043.00
2022-12-20T20:20:34.886Z,101041.00
2022-12-20T20:23:01.571Z,101043.00
2022-12-20T20:25:28.244Z,101046.00
2022-12-20T20:27:54.876Z,101039.00
2022-12-20T20:30:21.472Z,101036.00
2022-12-20T20:32:48.154Z,101041.00
2022-12-20T20:35:14.844Z,101045.00
2022-12-20T20:37:42.419Z,101045.00
2022-12-20T20:40:09.653Z,101029.00
2022-12-20T20:42:36.286Z,101040.00
2022-12-20T20:45:03.052Z,101050.00
2022-12-20T20:47:29.701Z,101050.00
2022-12-20T20:49:56.684Z,101044.00
2022-12-20T20:52:23.442Z,101058.00
2022-12-20T20:54:50.047Z,101057.00
2022-12-20T20:57:16.644Z,101054.00
2022-12-20T20:59:44.368Z,101039.00
2022-12-20T21:02:16.450Z,101052.00
2022-12-20T21:04:49.510Z,101046.00
2022-12-20T21:07:26.239Z,101059.00
2022-12-20T21:09:52.831Z,101060.00
2022-12-20T21:12:20.368Z,101064.00
2022-12-20T21:15:20.659Z,101062.00
2022-12-20T21:17:34.136Z,101061.00
2022-12-20T21:20:00.739Z,101062.00
2022-12-20T21:22:27.380Z,101070.00
2022-12-20T21:24:53.979Z,101060.00
2022-12-20T21:27:20.597Z,101051.00
2022-12-20T21:29:47.154Z,101047.00
2022-12-20T21:32:13.801Z,101053.00
2022-12-20T21:34:40.438Z,101061.00
2022-12-20T21:37:07.096Z,101073.00
2022-12-20T21:39:34.227Z,101077.00
2022-12-20T21:42:02.103Z,101078.00
2022-12-20T21:44:29.109Z,101076.00
2022-12-20T21:46:55.968Z,101075.00
2022-12-20T21:49:22.900Z,101076.00
2022-12-20T21:51:49.474Z,101079.00
2022-12-20T21:54:16.084Z,101075.00
2022-12-20T21:56:42.679Z,101088.00
2022-12-20T21:59:11.061Z,101083.00
2022-12-20T22:01:37.795Z,101084.00
2022-12-20T22:04:06.649Z,101076.00
2022-12-20T22:06:34.384Z,101076.00
2022-12-20T22:09:02.601Z,101062.00
2022-12-20T22:11:29.194Z,101066.00
2022-12-20T22:13:57.286Z,101066.00
2022-12-20T22:16:26.555Z,101064.00
2022-12-20T22:18:55.196Z,101069.00
2022-12-20T22:21:24.493Z,101080.00
2022-12-20T22:23:51.234Z,101082.00
2022-12-20T22:26:20.449Z,101078.00
2022-12-20T22:28:52.902Z,101077.00
2022-12-20T22:31:19.996Z,101074.00
2022-12-20T22:33:47.107Z,101081.00
2022-12-20T22:36:15.824Z,101075.00
2022-12-20T22:38:45.906Z,101078.00
2022-12-20T22:41:22.361Z,101081.00
2022-12-20T22:43:49.496Z,101077.00
2022-12-20T22:46:17.922Z,101073.00
2022-12-20T22:48:45.210Z,101073.00
2022-12-20T22:51:19.674Z,101072.00
2022-12-20T22:53:47.673Z,101075.00
2022-12-20T22:56:16.053Z,101076.00
2022-12-20T22:58:42.737Z,101067.00
2022-12-20T23:01:12.831Z,101078.00
2022-12-20T23:03:40.643Z,101073.00
2022-12-20T23:06:08.874Z,101074.00
2022-12-20T23:08:37.083Z,101093.00
2022-12-20T23:11:34.450Z,101096.00
2022-12-20T23:14:19.881Z,101093.00
2022-12-20T23:16:46.515Z,101095.00
2022-12-20T23:19:13.323Z,101093.00
2022-12-20T23:21:58.199Z,101086.00
2022-12-20T23:24:24.984Z,101077.00
2022-12-20T23:26:51.599Z,101084.00
2022-12-20T23:29:18.258Z,101083.00
2022-12-20T23:31:44.977Z,101079.00
2022-12-20T23:34:11.736Z,101081.00
2022-12-20T23:36:38.379Z,101079.00
2022-12-20T23:39:05.927Z,101083.00
2022-12-20T23:41:32.596Z,101077.00
2022-12-20T23:43:59.388Z,101077.00
2022-12-20T23:46:26.752Z,101074.00
2022-12-20T23:48:53.993Z,101074.00
2022-12-20T23:51:21.733Z,101076.00
2022-12-20T23:53:50.584Z,101074.00
2022-12-20T23:56:20.913Z,101078.00
2022-12-20T23:58:52.569Z,101074.00
